Time;durP1;ratioP1;P1;durP2;ratioP2;P2;SDS_P1;SDS_P2;PMS_P1;PMS_P2;Temp;Humidity;BMP_temperature;BMP_pressure;BME280_temperature;BME280_humidity;BME280_pressure;Samples;Min_cycle;Max_cycle;Signal;HPM_P1;HPM_P2
2022/06/27 00:00:43;;;;;;;17.10;15.20;;;;;;;;;;101982;1337;22645;-25
2022/06/27 00:03:12;;;;;;;43.90;28.50;;;;;;;;;;101968;1337;22571;-25
2022/06/27 00:05:41;;;;;;;96.70;60.60;;;;;;;;;;102011;1337;22602;-29
2022/06/27 00:08:10;;;;;;;179.10;104.80;;;;;;;;;;101999;1337;22597;-29
2022/06/27 00:10:39;;;;;;;134.00;82.90;;;;;;;;;;102022;1337;22603;-25
2022/06/27 00:13:08;;;;;;;62.60;45.70;;;;;;;;;;101995;1337;22610;-25
2022/06/27 00:15:37;;;;;;;48.20;39.10;;;;;;;;;;101949;1329;22762;-31
2022/06/27 00:18:06;;;;;;;33.80;29.00;;;;;;;;;;101964;1337;22590;-25
2022/06/27 00:20:35;;;;;;;43.80;32.90;;;;;;;;;;101948;1335;22598;-25
2022/06/27 00:23:03;;;;;;;57.70;48.40;;;;;;;;;;101957;1337;22898;-29
2022/06/27 00:25:32;;;;;;;86.40;70.00;;;;;;;;;;102043;1337;25958;-30
2022/06/27 00:28:01;;;;;;;274.90;142.50;;;;;;;;;;102036;1337;22632;-30
2022/06/27 00:30:30;;;;;;;78.20;48.10;;;;;;;;;;102060;1337;22620;-30
2022/06/27 00:32:59;;;;;;;85.70;66.70;;;;;;;;;;102054;1337;22613;-26
2022/06/27 00:35:28;;;;;;;102.10;79.60;;;;;;;;;;102073;1337;23153;-26
2022/06/27 00:37:56;;;;;;;69.70;53.70;;;;;;;;;;102008;1337;22613;-30
2022/06/27 00:40:25;;;;;;;126.10;87.50;;;;;;;;;;101256;1337;1002976;-25
2022/06/27 00:42:54;;;;;;;73.30;50.80;;;;;;;;;;101946;1337;22603;-25
2022/06/27 00:45:23;;;;;;;30.30;24.90;;;;;;;;;;102008;1337;22642;-28
2022/06/27 00:47:52;;;;;;;71.10;54.40;;;;;;;;;;101923;1337;22628;-28
2022/06/27 00:50:21;;;;;;;89.50;56.90;;;;;;;;;;101937;1337;22613;-28
2022/06/27 00:52:50;;;;;;;90.30;61.10;;;;;;;;;;101915;1337;22604;-24
2022/06/27 00:55:19;;;;;;;31.80;20.50;;;;;;;;;;101899;1337;22576;-25
2022/06/27 00:57:47;;;;;;;61.60;38.60;;;;;;;;;;101992;1337;22600;-31
2022/06/27 01:00:16;;;;;;;5.70;5.00;;;;;;;;;;102018;1337;22603;-25
2022/06/27 01:02:45;;;;;;;61.40;50.00;;;;;;;;;;102094;1337;22609;-28
2022/06/27 01:05:14;;;;;;;4.70;4.00;;;;;;;;;;102074;1337;22815;-29
2022/06/27 01:07:43;;;;;;;59.10;30.20;;;;;;;;;;102025;1337;22611;-25
2022/06/27 01:10:12;;;;;;;24.20;13.20;;;;;;;;;;101909;1337;22618;-24
2022/06/27 01:12:41;;;;;;;69.90;35.20;;;;;;;;;;101967;1337;22592;-25
2022/06/27 01:15:10;;;;;;;263.70;142.50;;;;;;;;;;101935;1337;22610;-25
2022/06/27 01:17:39;;;;;;;40.20;26.90;;;;;;;;;;101954;1337;22569;-26
2022/06/27 01:20:08;;;;;;;210.60;146.30;;;;;;;;;;101963;1337;22588;-25
2022/06/27 01:22:37;;;;;;;102.60;67.70;;;;;;;;;;101912;1337;22758;-28
2022/06/27 01:25:07;;;;;;;56.70;42.30;;;;;;;;;;101933;1337;22621;-28
2022/06/27 01:27:35;;;;;;;38.10;29.00;;;;;;;;;;101991;1337;22618;-27
2022/06/27 01:30:05;;;;;;;85.50;63.60;;;;;;;;;;101970;1337;22686;-26
2022/06/27 01:32:33;;;;;;;48.10;36.80;;;;;;;;;;101938;1337;23030;-29
2022/06/27 01:35:03;;;;;;;44.50;35.90;;;;;;;;;;101910;1337;22558;-28
2022/06/27 01:37:32;;;;;;;8.40;6.90;;;;;;;;;;102032;1337;22613;-29
2022/06/27 01:40:01;;;;;;;11.90;9.80;;;;;;;;;;102002;1333;22618;-25
2022/06/27 01:42:29;;;;;;;69.60;43.20;;;;;;;;;;102003;1337;22866;-23
2022/06/27 01:44:58;;;;;;;22.60;18.50;;;;;;;;;;101858;1337;22594;-25
2022/06/27 01:47:29;;;;;;;31.70;26.10;;;;;;;;;;101990;1337;22735;-24
2022/06/27 01:49:58;;;;;;;72.40;55.80;;;;;;;;;;101922;1337;22612;-28
2022/06/27 01:52:27;;;;;;;100.90;78.10;;;;;;;;;;101989;1337;22612;-27
2022/06/27 01:54:56;;;;;;;72.50;57.30;;;;;;;;;;101968;1337;22602;-27
2022/06/27 01:57:25;;;;;;;68.10;51.60;;;;;;;;;;101918;1333;22620;-28
2022/06/27 01:59:53;;;;;;;106.30;79.30;;;;;;;;;;101995;1337;22603;-23
2022/06/27 02:02:22;;;;;;;119.50;91.20;;;;;;;;;;101883;1337;22732;-28
2022/06/27 02:04:52;;;;;;;93.20;67.80;;;;;;;;;;102120;1337;22592;-28
2022/06/27 02:07:21;;;;;;;200.50;144.40;;;;;;;;;;102059;1337;22601;-27
2022/06/27 02:09:50;;;;;;;172.40;133.50;;;;;;;;;;102097;1337;22621;-28
2022/06/27 02:12:19;;;;;;;23.60;19.60;;;;;;;;;;101954;1337;22590;-28
2022/06/27 02:14:48;;;;;;;16.30;13.40;;;;;;;;;;101976;1337;22571;-24
2022/06/27 02:17:17;;;;;;;27.10;17.70;;;;;;;;;;101937;1337;22616;-30
2022/06/27 02:19:46;;;;;;;6.00;2.70;;;;;;;;;;102026;1333;22596;-23
2022/06/27 02:22:15;;;;;;;168.50;143.30;;;;;;;;;;101970;1337;22602;-28
2022/06/27 02:24:44;;;;;;;131.40;101.00;;;;;;;;;;101989;1337;22601;-25
2022/06/27 02:27:13;;;;;;;146.20;115.60;;;;;;;;;;102048;1337;22674;-25
2022/06/27 02:29:41;;;;;;;78.40;63.20;;;;;;;;;;101975;1337;22609;-25
2022/06/27 02:32:10;;;;;;;74.70;64.30;;;;;;;;;;101922;1337;22657;-24
2022/06/27 02:34:39;;;;;;;58.10;47.90;;;;;;;;;;102117;1337;22607;-24
2022/06/27 02:37:08;;;;;;;42.90;37.30;;;;;;;;;;101967;1337;22592;-28
2022/06/27 02:39:37;;;;;;;135.90;109.20;;;;;;;;;;101982;1337;22612;-31
2022/06/27 02:42:07;;;;;;;148.60;119.20;;;;;;;;;;101939;1337;22661;-27
2022/06/27 02:44:36;;;;;;;61.20;48.40;;;;;;;;;;101950;1337;22619;-27
2022/06/27 02:47:05;;;;;;;36.20;32.10;;;;;;;;;;102010;1337;22606;-29
2022/06/27 02:49:33;;;;;;;63.80;53.30;;;;;;;;;;102047;1337;22629;-29
2022/06/27 02:52:02;;;;;;;29.10;25.20;;;;;;;;;;101916;1337;22699;-28
2022/06/27 02:54:35;;;;;;;29.50;26.10;;;;;;;;;;102090;1337;22619;-29
2022/06/27 02:57:05;;;;;;;109.00;91.50;;;;;;;;;;101966;1337;22596;-28
2022/06/27 02:59:35;;;;;;;11.60;9.50;;;;;;;;;;102019;1330;22622;-27
2022/06/27 03:02:06;;;;;;;9.90;9.00;;;;;;;;;;101918;1337;22736;-30
2022/06/27 03:04:35;;;;;;;30.00;24.50;;;;;;;;;;102021;1337;22580;-24
2022/06/27 03:07:04;;;;;;;34.80;28.80;;;;;;;;;;101963;1337;22720;-25
2022/06/27 03:09:33;;;;;;;11.50;5.30;;;;;;;;;;102008;1329;22702;-25
2022/06/27 03:12:02;;;;;;;10.80;8.40;;;;;;;;;;101981;1337;22616;-28
2022/06/27 03:14:31;;;;;;;17.10;8.00;;;;;;;;;;101926;1337;22600;-28
2022/06/27 03:16:59;;;;;;;2.70;2.50;;;;;;;;;;101934;1337;22612;-30
2022/06/27 03:19:28;;;;;;;31.90;28.80;;;;;;;;;;102056;1337;22627;-30
2022/06/27 03:21:57;;;;;;;36.80;31.30;;;;;;;;;;102002;1337;22592;-25
2022/06/27 03:24:26;;;;;;;10.40;9.40;;;;;;;;;;101950;1337;22601;-28
2022/06/27 03:26:55;;;;;;;8.20;7.50;;;;;;;;;;102105;1337;22620;-24
2022/06/27 03:29:24;;;;;;;10.80;6.40;;;;;;;;;;102083;1337;22735;-25
2022/06/27 03:31:53;;;;;;;5.90;5.30;;;;;;;;;;101965;1337;22624;-27
2022/06/27 03:34:22;;;;;;;15.90;8.40;;;;;;;;;;102026;1337;22615;-24
2022/06/27 03:36:51;;;;;;;8.90;7.20;;;;;;;;;;101904;1337;22743;-25
2022/06/27 03:39:20;;;;;;;8.60;5.10;;;;;;;;;;102003;1337;22614;-29
2022/06/27 03:41:50;;;;;;;11.90;10.00;;;;;;;;;;101992;1337;22649;-28
2022/06/27 03:44:19;;;;;;;5.50;5.00;;;;;;;;;;101767;1332;22604;-28
2022/06/27 03:46:48;;;;;;;11.80;7.40;;;;;;;;;;101935;1337;22733;-31
2022/06/27 03:51:49;;;;;;;7.40;3.20;;;;;;;;;;102015;1337;22632;-28
2022/06/27 03:54:18;;;;;;;6.50;4.30;;;;;;;;;;102093;1337;22717;-26
2022/06/27 03:56:47;;;;;;;4.90;2.70;;;;;;;;;;102014;1337;22611;-25
2022/06/27 03:59:16;;;;;;;3.50;2.90;;;;;;;;;;101955;1337;22714;-29
2022/06/27 04:01:46;;;;;;;3.40;3.00;;;;;;;;;;101978;1337;22611;-30
2022/06/27 04:04:15;;;;;;;3.00;2.70;;;;;;;;;;101966;1337;22572;-29
2022/06/27 04:06:43;;;;;;;3.50;2.80;;;;;;;;;;102058;1337;22598;-24
2022/06/27 04:09:12;;;;;;;3.50;3.10;;;;;;;;;;101965;1337;22731;-30
2022/06/27 04:11:42;;;;;;;2.90;2.60;;;;;;;;;;101941;1337;22618;-25
2022/06/27 04:14:10;;;;;;;4.50;2.60;;;;;;;;;;101973;1337;22699;-29
2022/06/27 04:16:39;;;;;;;2.80;2.50;;;;;;;;;;102023;1337;22596;-26
2022/06/27 04:19:08;;;;;;;3.60;2.60;;;;;;;;;;102007;1337;22606;-25
2022/06/27 04:21:37;;;;;;;3.90;2.80;;;;;;;;;;102041;1337;22721;-26
2022/06/27 04:24:06;;;;;;;4.20;2.70;;;;;;;;;;101931;1337;22606;-25
2022/06/27 04:26:35;;;;;;;3.50;2.60;;;;;;;;;;102106;1337;22598;-25
2022/06/27 04:29:03;;;;;;;10.70;3.50;;;;;;;;;;102069;1330;22710;-29
2022/06/27 04:31:32;;;;;;;3.30;2.80;;;;;;;;;;101954;1337;22593;-25
2022/06/27 04:34:01;;;;;;;4.00;2.40;;;;;;;;;;101931;1337;22602;-29
2022/06/27 04:36:31;;;;;;;2.90;2.50;;;;;;;;;;101935;1337;22584;-27
2022/06/27 04:39:01;;;;;;;3.90;2.70;;;;;;;;;;102130;1337;25783;-29
2022/06/27 04:41:29;;;;;;;3.50;2.20;;;;;;;;;;101945;1337;22735;-27
2022/06/27 04:43:58;;;;;;;2.10;1.80;;;;;;;;;;101943;1332;22612;-30
2022/06/27 04:46:27;;;;;;;3.00;2.40;;;;;;;;;;102183;1337;22896;-26
2022/06/27 04:48:56;;;;;;;4.90;3.00;;;;;;;;;;102053;1337;22596;-25
2022/06/27 04:51:25;;;;;;;3.20;2.30;;;;;;;;;;102071;1337;22593;-25
2022/06/27 04:53:54;;;;;;;2.60;2.20;;;;;;;;;;102013;1337;22723;-29
2022/06/27 04:56:23;;;;;;;8.80;2.70;;;;;;;;;;102076;1337;22704;-28
2022/06/27 04:58:52;;;;;;;5.90;2.20;;;;;;;;;;101919;1337;22605;-28
2022/06/27 05:01:21;;;;;;;9.80;2.00;;;;;;;;;;101959;1337;22575;-28
2022/06/27 05:03:50;;;;;;;2.80;2.30;;;;;;;;;;102040;1337;22633;-28
2022/06/27 05:06:18;;;;;;;4.00;1.90;;;;;;;;;;102112;1337;22589;-28
2022/06/27 05:08:47;;;;;;;4.20;2.00;;;;;;;;;;101975;1337;22585;-27
2022/06/27 05:11:16;;;;;;;2.90;2.00;;;;;;;;;;101913;1337;22605;-30
2022/06/27 05:13:45;;;;;;;1.90;1.70;;;;;;;;;;101846;1337;22573;-30
2022/06/27 05:16:16;;;;;;;2.00;1.80;;;;;;;;;;101977;1337;22621;-27
2022/06/27 05:18:45;;;;;;;9.40;2.50;;;;;;;;;;101930;1337;22705;-23
2022/06/27 05:21:14;;;;;;;6.10;2.40;;;;;;;;;;101964;1337;22608;-28
2022/06/27 05:23:43;;;;;;;1.70;1.50;;;;;;;;;;102055;1336;22675;-28
2022/06/27 05:26:12;;;;;;;7.80;1.90;;;;;;;;;;102163;1336;22621;-28
2022/06/27 05:28:41;;;;;;;2.90;2.10;;;;;;;;;;102040;1336;22584;-25
2022/06/27 05:31:10;;;;;;;4.60;1.90;;;;;;;;;;102051;1329;22724;-24
2022/06/27 05:33:39;;;;;;;3.50;2.00;;;;;;;;;;102155;1336;22614;-28
2022/06/27 05:36:10;;;;;;;3.40;2.10;;;;;;;;;;102037;1336;22597;-24
2022/06/27 05:38:39;;;;;;;3.60;1.70;;;;;;;;;;102026;1336;22605;-28
2022/06/27 05:41:09;;;;;;;7.60;2.80;;;;;;;;;;102093;1337;22610;-27
2022/06/27 05:43:38;;;;;;;10.50;2.80;;;;;;;;;;102054;1336;22917;-30
2022/06/27 05:46:07;;;;;;;2.90;2.10;;;;;;;;;;102119;1336;22596;-30
2022/06/27 05:48:37;;;;;;;3.00;2.30;;;;;;;;;;102097;1336;22607;-26
2022/06/27 05:51:05;;;;;;;2.00;1.40;;;;;;;;;;102122;1336;22624;-30
2022/06/27 05:53:34;;;;;;;6.50;2.70;;;;;;;;;;101996;1336;22725;-26
2022/06/27 05:56:04;;;;;;;5.30;2.30;;;;;;;;;;102069;1329;22712;-30
2022/06/27 05:58:33;;;;;;;2.60;2.40;;;;;;;;;;101967;1336;26041;-25
2022/06/27 06:01:02;;;;;;;2.70;1.70;;;;;;;;;;102152;1336;22609;-27
2022/06/27 06:03:31;;;;;;;3.70;2.30;;;;;;;;;;102046;1336;22596;-24
2022/06/27 06:06:00;;;;;;;4.70;2.30;;;;;;;;;;101933;1337;22602;-25
2022/06/27 06:08:31;;;;;;;4.10;2.30;;;;;;;;;;102026;1336;22589;-26
2022/06/27 06:10:59;;;;;;;4.60;2.80;;;;;;;;;;102101;1336;22602;-27
2022/06/27 06:13:28;;;;;;;3.00;2.40;;;;;;;;;;102084;1336;22592;-24
2022/06/27 06:15:57;;;;;;;2.30;2.00;;;;;;;;;;102068;1336;22636;-29
2022/06/27 06:18:27;;;;;;;6.50;2.50;;;;;;;;;;101969;1336;120338;-30
2022/06/27 06:20:55;;;;;;;3.70;1.90;;;;;;;;;;102015;1336;22606;-25
2022/06/27 06:23:25;;;;;;;2.50;2.10;;;;;;;;;;102000;1336;22613;-27
2022/06/27 06:26:05;;;;;;;2.90;2.00;;;;;;;;;;102036;1336;22577;-30
2022/06/27 06:28:43;;;;;;;5.70;2.50;;;;;;;;;;102050;1336;23085;-31
2022/06/27 06:31:22;;;;;;;5.10;2.60;;;;;;;;;;102051;1336;22681;-28
2022/06/27 06:33:52;;;;;;;2.60;2.30;;;;;;;;;;101981;1336;22597;-25
2022/06/27 06:36:21;;;;;;;5.70;2.30;;;;;;;;;;101982;1337;22589;-27
2022/06/27 06:38:51;;;;;;;5.70;2.40;;;;;;;;;;102124;1336;22628;-28
2022/06/27 06:41:20;;;;;;;9.10;2.30;;;;;;;;;;102077;1336;22602;-23
2022/06/27 06:43:59;;;;;;;2.60;2.10;;;;;;;;;;102025;1336;22613;-31
2022/06/27 06:46:28;;;;;;;2.60;2.30;;;;;;;;;;102109;1336;24088;-25
2022/06/27 06:49:02;;;;;;;8.30;2.90;;;;;;;;;;102194;1336;22655;-25
2022/06/27 06:51:34;;;;;;;5.30;2.50;;;;;;;;;;102086;1336;22620;-30
2022/06/27 06:54:04;;;;;;;2.80;2.10;;;;;;;;;;101893;1337;22596;-31
2022/06/27 06:56:33;;;;;;;4.10;2.50;;;;;;;;;;102069;1336;22594;-25
2022/06/27 06:59:02;;;;;;;3.80;2.30;;;;;;;;;;102100;1336;22586;-25
2022/06/27 07:01:33;;;;;;;2.50;2.00;;;;;;;;;;101273;1336;1003346;-28
2022/06/27 07:04:02;;;;;;;2.30;1.90;;;;;;;;;;102010;1336;22592;-28
2022/06/27 07:06:32;;;;;;;8.30;2.70;;;;;;;;;;102088;1336;22598;-25
2022/06/27 07:09:01;;;;;;;4.00;2.70;;;;;;;;;;102114;1336;22581;-25
2022/06/27 07:11:31;;;;;;;3.30;2.00;;;;;;;;;;102107;1336;22596;-29
2022/06/27 07:14:00;;;;;;;10.30;2.50;;;;;;;;;;102055;1336;22587;-31
2022/06/27 07:16:29;;;;;;;3.40;2.10;;;;;;;;;;102074;1336;22618;-25
2022/06/27 07:19:00;;;;;;;8.60;1.90;;;;;;;;;;102113;1336;22667;-24
2022/06/27 07:21:31;;;;;;;7.80;2.90;;;;;;;;;;101901;1336;22629;-30
2022/06/27 07:24:01;;;;;;;4.00;1.70;;;;;;;;;;102064;1336;22672;-28
2022/06/27 07:26:32;;;;;;;3.90;2.10;;;;;;;;;;102085;1336;22616;-28
2022/06/27 07:29:04;;;;;;;2.20;1.90;;;;;;;;;;101995;1336;22623;-28
2022/06/27 07:31:33;;;;;;;3.20;2.20;;;;;;;;;;102127;1336;22723;-28
2022/06/27 07:34:02;;;;;;;2.10;1.80;;;;;;;;;;102106;1336;22603;-28
2022/06/27 07:36:32;;;;;;;1.90;1.60;;;;;;;;;;102131;1336;22600;-28
2022/06/27 07:39:01;;;;;;;4.40;2.80;;;;;;;;;;102055;1336;22576;-30
2022/06/27 07:41:32;;;;;;;4.40;1.60;;;;;;;;;;102040;1336;22687;-27
2022/06/27 07:44:03;;;;;;;6.90;2.80;;;;;;;;;;102042;1328;22565;-26
2022/06/27 07:46:34;;;;;;;2.10;1.80;;;;;;;;;;102101;1336;22736;-28
2022/06/27 07:49:03;;;;;;;2.20;2.00;;;;;;;;;;102068;1336;22879;-30
2022/06/27 07:51:32;;;;;;;7.80;2.10;;;;;;;;;;102060;1336;22596;-30
2022/06/27 07:54:01;;;;;;;2.30;2.10;;;;;;;;;;102122;1336;22602;-24
2022/06/27 07:56:30;;;;;;;3.60;2.20;;;;;;;;;;102052;1336;22618;-25
2022/06/27 07:58:59;;;;;;;1.90;1.60;;;;;;;;;;102063;1329;24900;-28
2022/06/27 08:01:28;;;;;;;7.70;2.40;;;;;;;;;;102098;1336;22610;-26
2022/06/27 08:03:57;;;;;;;2.00;1.50;;;;;;;;;;102073;1336;22652;-24
2022/06/27 08:06:27;;;;;;;2.00;1.80;;;;;;;;;;102061;1336;22624;-25
2022/06/27 08:08:58;;;;;;;5.00;1.40;;;;;;;;;;102048;1336;22709;-28
2022/06/27 08:11:27;;;;;;;3.30;2.10;;;;;;;;;;102120;1336;22650;-23
2022/06/27 08:13:58;;;;;;;3.40;2.20;;;;;;;;;;102042;1336;22620;-29
2022/06/27 08:16:27;;;;;;;4.00;1.80;;;;;;;;;;102057;1336;22710;-28
2022/06/27 08:18:55;;;;;;;6.10;1.80;;;;;;;;;;102130;1336;22589;-25
2022/06/27 08:21:25;;;;;;;4.80;2.20;;;;;;;;;;102106;1336;22728;-29
2022/06/27 08:23:56;;;;;;;3.60;2.50;;;;;;;;;;101984;1337;22596;-29
2022/06/27 08:26:26;;;;;;;2.00;1.90;;;;;;;;;;102096;1336;22676;-25
2022/06/27 08:28:56;;;;;;;1.90;1.70;;;;;;;;;;101965;1337;22610;-24
2022/06/27 08:31:25;;;;;;;2.00;1.80;;;;;;;;;;102056;1336;22604;-23
2022/06/27 08:33:58;;;;;;;4.90;2.60;;;;;;;;;;102080;1336;22621;-28
2022/06/27 08:36:30;;;;;;;3.80;1.80;;;;;;;;;;102015;1336;22599;-28
2022/06/27 08:39:01;;;;;;;2.30;2.20;;;;;;;;;;102043;1336;22583;-24
2022/06/27 08:41:30;;;;;;;9.90;2.60;;;;;;;;;;102105;1336;22596;-28
2022/06/27 08:44:00;;;;;;;3.80;2.70;;;;;;;;;;102073;1336;22586;-29
2022/06/27 08:46:29;;;;;;;2.70;2.40;;;;;;;;;;102143;1336;22655;-29
2022/06/27 08:48:58;;;;;;;3.10;2.50;;;;;;;;;;102117;1336;22664;-28
2022/06/27 08:51:28;;;;;;;3.50;2.00;;;;;;;;;;102073;1336;22609;-29
2022/06/27 08:53:57;;;;;;;1.70;1.40;;;;;;;;;;102153;1329;22608;-29
2022/06/27 08:56:29;;;;;;;2.20;1.80;;;;;;;;;;102058;1337;22579;-28
2022/06/27 08:58:59;;;;;;;3.00;2.60;;;;;;;;;;102029;1336;22601;-24
2022/06/27 09:01:29;;;;;;;3.90;1.70;;;;;;;;;;102093;1337;22596;-25
2022/06/27 09:04:00;;;;;;;2.80;1.90;;;;;;;;;;102059;1336;22643;-28
2022/06/27 09:06:32;;;;;;;3.00;2.40;;;;;;;;;;102132;1336;22600;-28
2022/06/27 09:09:08;;;;;;;2.70;2.40;;;;;;;;;;102070;1336;22750;-24
2022/06/27 09:11:39;;;;;;;4.40;2.30;;;;;;;;;;102051;1336;22595;-28
2022/06/27 09:14:28;;;;;;;4.00;1.90;;;;;;;;;;101389;1336;1003289;-25
2022/06/27 09:16:57;;;;;;;1.80;1.70;;;;;;;;;;102201;1336;22607;-24
2022/06/27 09:19:43;;;;;;;6.30;2.40;;;;;;;;;;102256;1336;22585;-25
2022/06/27 09:22:14;;;;;;;2.40;1.80;;;;;;;;;;102152;1336;22591;-25
2022/06/27 09:24:56;;;;;;;4.30;2.30;;;;;;;;;;102279;1336;22601;-29
2022/06/27 09:27:37;;;;;;;5.10;2.30;;;;;;;;;;102223;1336;22600;-29
2022/06/27 09:30:18;;;;;;;2.60;2.20;;;;;;;;;;102116;1329;22710;-29
2022/06/27 09:32:58;;;;;;;6.40;2.50;;;;;;;;;;102223;1336;22624;-27
2022/06/27 09:35:36;;;;;;;2.10;1.90;;;;;;;;;;102118;1337;22603;-24
2022/06/27 09:38:14;;;;;;;3.40;2.20;;;;;;;;;;102159;1329;22596;-23
2022/06/27 09:40:52;;;;;;;4.10;1.90;;;;;;;;;;102209;1326;22603;-24
2022/06/27 09:43:30;;;;;;;2.60;2.20;;;;;;;;;;102224;1337;23118;-25
2022/06/27 09:46:07;;;;;;;3.30;1.90;;;;;;;;;;102223;1329;22607;-29
2022/06/27 09:48:45;;;;;;;3.50;2.40;;;;;;;;;;102332;1336;22602;-24
2022/06/27 09:51:23;;;;;;;3.80;1.40;;;;;;;;;;102221;1336;22596;-24
2022/06/27 09:54:08;;;;;;;2.30;2.00;;;;;;;;;;102188;1336;22598;-24
2022/06/27 09:56:46;;;;;;;13.50;1.80;;;;;;;;;;102219;1336;22600;-24
2022/06/27 09:59:23;;;;;;;4.10;1.80;;;;;;;;;;102172;1336;22714;-28
2022/06/27 10:02:01;;;;;;;2.10;1.90;;;;;;;;;;102244;1336;22710;-29
2022/06/27 10:04:39;;;;;;;2.00;1.80;;;;;;;;;;102242;1336;22621;-26
2022/06/27 10:07:17;;;;;;;1.90;1.20;;;;;;;;;;102216;1336;22724;-25
2022/06/27 10:09:54;;;;;;;2.00;1.80;;;;;;;;;;102206;1330;22596;-25
2022/06/27 10:12:31;;;;;;;1.80;1.70;;;;;;;;;;102231;1336;22611;-25
2022/06/27 10:15:17;;;;;;;2.50;1.50;;;;;;;;;;102195;1329;22596;-25
2022/06/27 10:17:55;;;;;;;3.10;1.80;;;;;;;;;;102215;1336;22607;-28
2022/06/27 10:20:33;;;;;;;1.70;1.50;;;;;;;;;;102156;1336;22602;-24
2022/06/27 10:23:11;;;;;;;1.80;1.60;;;;;;;;;;102264;1336;22603;-28
2022/06/27 10:25:48;;;;;;;3.40;2.90;;;;;;;;;;102281;1336;22724;-24
2022/06/27 10:28:26;;;;;;;28.10;3.60;;;;;;;;;;102232;1336;22621;-28
2022/06/27 10:31:03;;;;;;;1.90;1.60;;;;;;;;;;102275;1337;22596;-30
2022/06/27 10:33:40;;;;;;;1.80;1.50;;;;;;;;;;102282;1336;22597;-24
2022/06/27 10:36:19;;;;;;;4.90;2.60;;;;;;;;;;102216;1336;22630;-26
2022/06/27 10:38:59;;;;;;;2.80;2.10;;;;;;;;;;102248;1336;22706;-30
2022/06/27 10:41:38;;;;;;;2.40;2.10;;;;;;;;;;102284;1336;22735;-23
2022/06/27 10:44:19;;;;;;;6.80;1.90;;;;;;;;;;102286;1336;22728;-24
2022/06/27 10:46:57;;;;;;;1.90;1.60;;;;;;;;;;102306;1336;22674;-24
2022/06/27 10:49:34;;;;;;;3.30;2.00;;;;;;;;;;102346;1336;22683;-29
2022/06/27 10:52:21;;;;;;;2.90;2.00;;;;;;;;;;102164;1337;22590;-28
2022/06/27 10:54:58;;;;;;;2.40;2.10;;;;;;;;;;102178;1336;23161;-25
2022/06/27 10:57:36;;;;;;;2.80;2.30;;;;;;;;;;102162;1336;22682;-28
2022/06/27 11:00:34;;;;;;;2.80;2.30;;;;;;;;;;102369;1336;22621;-24
2022/06/27 11:03:14;;;;;;;2.10;2.00;;;;;;;;;;102301;1336;22672;-24
2022/06/27 11:05:55;;;;;;;1.70;1.60;;;;;;;;;;102443;1336;22590;-24
2022/06/27 11:08:33;;;;;;;8.90;2.10;;;;;;;;;;102471;1335;22617;-28
2022/06/27 11:11:14;;;;;;;2.20;1.80;;;;;;;;;;102423;1336;22727;-28
2022/06/27 11:13:53;;;;;;;4.00;2.40;;;;;;;;;;102395;1336;22742;-24
2022/06/27 11:16:31;;;;;;;3.10;2.60;;;;;;;;;;102393;1336;22600;-28
2022/06/27 11:20:04;;;;;;;2.40;1.70;;;;;;;;;;102391;1336;22579;-28
2022/06/27 11:22:09;;;;;;;4.30;2.60;;;;;;;;;;102460;1329;22682;-24
2022/06/27 11:24:47;;;;;;;1.90;1.60;;;;;;;;;;102450;1336;24765;-24
2022/06/27 11:27:25;;;;;;;1.50;1.40;;;;;;;;;;102386;1335;22628;-28
2022/06/27 11:32:43;;;;;;;2.10;1.80;;;;;;;;;;102478;1335;22696;-28
2022/06/27 11:35:20;;;;;;;2.90;2.60;;;;;;;;;;102392;1329;22618;-24
2022/06/27 11:37:58;;;;;;;1.70;1.60;;;;;;;;;;102402;1336;22596;-28
2022/06/27 11:40:35;;;;;;;2.10;1.90;;;;;;;;;;102412;1336;25269;-24
2022/06/27 11:43:12;;;;;;;5.90;3.20;;;;;;;;;;102335;1336;22723;-24
2022/06/27 11:45:50;;;;;;;3.20;1.90;;;;;;;;;;102404;1335;22606;-28
2022/06/27 11:48:27;;;;;;;2.20;2.00;;;;;;;;;;102393;1335;22571;-28
2022/06/27 11:51:19;;;;;;;3.20;1.70;;;;;;;;;;102339;1329;23034;-28
2022/06/27 11:53:57;;;;;;;3.10;2.70;;;;;;;;;;102349;1335;22702;-30
2022/06/27 11:56:35;;;;;;;2.60;1.70;;;;;;;;;;102379;1335;22594;-25
2022/06/27 11:59:13;;;;;;;2.60;2.40;;;;;;;;;;102363;1336;22636;-25
2022/06/27 12:01:52;;;;;;;2.70;2.00;;;;;;;;;;102403;1335;22619;-25
2022/06/27 12:04:30;;;;;;;2.30;2.00;;;;;;;;;;102447;1336;22592;-28
2022/06/27 12:07:08;;;;;;;7.40;2.30;;;;;;;;;;102430;1336;22644;-24
2022/06/27 12:09:47;;;;;;;8.80;2.20;;;;;;;;;;102437;1329;22602;-28
2022/06/27 12:12:25;;;;;;;2.90;2.50;;;;;;;;;;102343;1336;22610;-24
2022/06/27 12:15:03;;;;;;;3.90;1.60;;;;;;;;;;102410;1336;22663;-28
2022/06/27 12:17:40;;;;;;;4.80;1.90;;;;;;;;;;102400;1329;22588;-24
2022/06/27 12:20:18;;;;;;;4.00;1.80;;;;;;;;;;102387;1335;22603;-24
2022/06/27 12:22:55;;;;;;;2.50;1.80;;;;;;;;;;102401;1335;22599;-24
2022/06/27 12:25:35;;;;;;;1.30;1.20;;;;;;;;;;102404;1335;22596;-28
2022/06/27 12:28:13;;;;;;;1.10;1.00;;;;;;;;;;102252;1336;22634;-24
2022/06/27 12:30:50;;;;;;;2.70;1.40;;;;;;;;;;102413;1335;22607;-28
2022/06/27 12:33:27;;;;;;;5.00;1.30;;;;;;;;;;102367;1335;22669;-24
2022/06/27 12:36:05;;;;;;;2.50;1.80;;;;;;;;;;102458;1335;22606;-24
2022/06/27 12:38:42;;;;;;;1.00;0.80;;;;;;;;;;102469;1336;22766;-24
2022/06/27 12:41:19;;;;;;;1.90;1.00;;;;;;;;;;102462;1335;22606;-28
2022/06/27 12:43:57;;;;;;;1.90;1.20;;;;;;;;;;102402;1335;22562;-25
2022/06/27 12:46:35;;;;;;;2.10;1.50;;;;;;;;;;102411;1335;22620;-28
2022/06/27 12:49:12;;;;;;;1.30;1.10;;;;;;;;;;102385;1335;22695;-28
2022/06/27 12:51:50;;;;;;;1.60;1.10;;;;;;;;;;102378;1335;22618;-24
2022/06/27 12:54:27;;;;;;;1.30;0.90;;;;;;;;;;102200;1336;22610;-24
2022/06/27 12:57:05;;;;;;;2.60;1.50;;;;;;;;;;102368;1329;22587;-28
2022/06/27 12:59:42;;;;;;;1.50;1.00;;;;;;;;;;102291;1336;22722;-24
2022/06/27 13:02:19;;;;;;;1.30;1.20;;;;;;;;;;102345;1335;22724;-24
2022/06/27 13:04:57;;;;;;;2.20;1.10;;;;;;;;;;102401;1329;22732;-28
2022/06/27 13:07:34;;;;;;;4.20;1.50;;;;;;;;;;102430;1336;22621;-24
2022/06/27 13:10:11;;;;;;;1.20;1.00;;;;;;;;;;102156;1336;22583;-28
2022/06/27 13:12:49;;;;;;;1.80;1.20;;;;;;;;;;102353;1336;22624;-28
2022/06/27 13:15:26;;;;;;;1.00;0.70;;;;;;;;;;102378;1335;22655;-24
2022/06/27 13:18:04;;;;;;;4.00;1.00;;;;;;;;;;102406;1335;22597;-24
2022/06/27 13:20:41;;;;;;;6.40;1.10;;;;;;;;;;102341;1335;22763;-28
2022/06/27 13:23:19;;;;;;;1.20;1.00;;;;;;;;;;102434;1330;22572;-30
2022/06/27 13:25:56;;;;;;;1.80;1.30;;;;;;;;;;102442;1336;22658;-29
2022/06/27 13:28:34;;;;;;;1.40;1.10;;;;;;;;;;102257;1329;22788;-29
2022/06/27 13:31:11;;;;;;;1.50;1.10;;;;;;;;;;102418;1336;22887;-28
2022/06/27 13:33:49;;;;;;;5.00;1.10;;;;;;;;;;102360;1336;22735;-24
2022/06/27 13:36:26;;;;;;;3.10;0.80;;;;;;;;;;102385;1335;22630;-28
2022/06/27 13:39:03;;;;;;;1.00;0.90;;;;;;;;;;102362;1336;23034;-24
2022/06/27 13:41:41;;;;;;;1.30;1.00;;;;;;;;;;102424;1336;22597;-24
2022/06/27 13:44:18;;;;;;;1.90;1.00;;;;;;;;;;102376;1336;22628;-28
2022/06/27 13:46:55;;;;;;;1.70;1.30;;;;;;;;;;102400;1336;22585;-24
2022/06/27 13:49:32;;;;;;;1.50;1.00;;;;;;;;;;102344;1336;22660;-24
2022/06/27 13:52:10;;;;;;;1.40;1.30;;;;;;;;;;102388;1336;22613;-24
2022/06/27 13:54:47;;;;;;;1.40;0.90;;;;;;;;;;102406;1329;22601;-24
2022/06/27 13:57:26;;;;;;;3.40;1.10;;;;;;;;;;102408;1335;22628;-24
2022/06/27 14:00:04;;;;;;;3.50;1.50;;;;;;;;;;102452;1335;22610;-28
2022/06/27 14:02:41;;;;;;;1.20;1.00;;;;;;;;;;102353;1336;22594;-24
2022/06/27 14:05:20;;;;;;;2.60;1.30;;;;;;;;;;102384;1336;22662;-28
2022/06/27 14:07:58;;;;;;;1.40;1.20;;;;;;;;;;102385;1336;22596;-24
2022/06/27 14:10:54;;;;;;;7.00;1.30;;;;;;;;;;102383;1336;22588;-24
2022/06/27 14:13:31;;;;;;;0.90;0.90;;;;;;;;;;102340;1329;22659;-28
2022/06/27 14:16:09;;;;;;;1.60;1.10;;;;;;;;;;102219;1336;22738;-24
2022/06/27 14:18:46;;;;;;;8.00;1.20;;;;;;;;;;102173;1336;22616;-24
2022/06/27 14:21:24;;;;;;;0.80;0.80;;;;;;;;;;102462;1335;22613;-24
2022/06/27 14:24:01;;;;;;;2.00;1.00;;;;;;;;;;102386;1336;22860;-24
2022/06/27 14:26:38;;;;;;;1.00;0.90;;;;;;;;;;102199;1336;22614;-28
2022/06/27 14:29:16;;;;;;;2.40;1.00;;;;;;;;;;102416;1335;22609;-28
2022/06/27 14:31:53;;;;;;;1.80;1.10;;;;;;;;;;102351;1336;22612;-24
2022/06/27 14:34:30;;;;;;;1.20;1.10;;;;;;;;;;102051;1336;22834;-28
2022/06/27 14:36:59;;;;;;;1.40;1.10;;;;;;;;;;102233;1336;23525;-24
2022/06/27 14:39:28;;;;;;;1.20;0.90;;;;;;;;;;102087;1336;22615;-29
2022/06/27 14:41:57;;;;;;;1.10;1.00;;;;;;;;;;102301;1335;22621;-25
2022/06/27 14:44:26;;;;;;;1.70;0.90;;;;;;;;;;102221;1335;22676;-28
2022/06/27 14:46:55;;;;;;;2.60;0.90;;;;;;;;;;102320;1336;22605;-30
2022/06/27 14:49:24;;;;;;;6.20;1.60;;;;;;;;;;102208;1335;22723;-28
2022/06/27 14:51:52;;;;;;;1.60;0.90;;;;;;;;;;102325;1336;22703;-24
2022/06/27 14:54:21;;;;;;;2.50;1.30;;;;;;;;;;102282;1336;22601;-28
2022/06/27 14:56:50;;;;;;;2.00;1.20;;;;;;;;;;102248;1335;22666;-28
2022/06/27 14:59:19;;;;;;;4.10;1.20;;;;;;;;;;102249;1335;22603;-30